sensor_id;sensor_type;location;lat;lon;timestamp;pressure;altitude;pressure_sealevel;temperature;humidity
21545;BME280;10933;50.754;11.508;2023-07-22T00:01:02;99771.59;;;12.68;100.00
21545;BME280;10933;50.754;11.508;2023-07-22T00:03:28;99782.97;;;12.70;100.00
21545;BME280;10933;50.754;11.508;2023-07-22T00:08:32;99785.56;;;12.55;100.00
21545;BME280;10933;50.754;11.508;2023-07-22T00:10:58;99787.69;;;12.48;100.00
21545;BME280;10933;50.754;11.508;2023-07-22T00:13:25;99787.03;;;12.35;100.00
21545;BME280;10933;50.754;11.508;2023-07-22T00:15:53;99787.53;;;12.32;100.00
21545;BME280;10933;50.754;11.508;2023-07-22T00:18:19;99788.03;;;12.29;100.00
21545;BME280;10933;50.754;11.508;2023-07-22T00:20:45;99780.19;;;12.28;100.00
21545;BME280;10933;50.754;11.508;2023-07-22T00:23:11;99790.19;;;12.27;100.00
21545;BME280;10933;50.754;11.508;2023-07-22T00:25:38;99783.66;;;12.23;100.00
21545;BME280;10933;50.754;11.508;2023-07-22T00:28:04;99785.75;;;12.16;100.00
21545;BME280;10933;50.754;11.508;2023-07-22T00:30:30;99791.16;;;12.16;100.00
21545;BME280;10933;50.754;11.508;2023-07-22T00:32:56;99789.00;;;12.18;100.00
21545;BME280;10933;50.754;11.508;2023-07-22T00:35:22;99790.41;;;12.21;100.00
21545;BME280;10933;50.754;11.508;2023-07-22T00:37:48;99787.13;;;12.19;100.00
21545;BME280;10933;50.754;11.508;2023-07-22T00:40:15;99785.50;;;12.18;100.00
21545;BME280;10933;50.754;11.508;2023-07-22T00:42:41;99785.75;;;12.16;100.00
21545;BME280;10933;50.754;11.508;2023-07-22T00:45:08;99780.84;;;12.13;100.00
21545;BME280;10933;50.754;11.508;2023-07-22T00:47:37;99771.63;;;12.09;100.00
21545;BME280;10933;50.754;11.508;2023-07-22T00:50:06;99784.59;;;12.07;100.00
21545;BME280;10933;50.754;11.508;2023-07-22T00:52:34;99787.22;;;12.02;100.00
21545;BME280;10933;50.754;11.508;2023-07-22T00:55:00;99788.25;;;11.96;100.00
21545;BME280;10933;50.754;11.508;2023-07-22T00:57:26;99789.25;;;11.90;100.00
21545;BME280;10933;50.754;11.508;2023-07-22T00:59:53;99789.22;;;11.85;100.00
21545;BME280;10933;50.754;11.508;2023-07-22T01:02:20;99793.84;;;11.89;100.00
21545;BME280;10933;50.754;11.508;2023-07-22T01:04:46;99794.38;;;11.86;100.00
21545;BME280;10933;50.754;11.508;2023-07-22T01:07:13;99790.28;;;11.84;100.00
21545;BME280;10933;50.754;11.508;2023-07-22T01:09:41;99791.91;;;11.85;100.00
21545;BME280;10933;50.754;11.508;2023-07-22T01:12:08;99793.53;;;11.86;100.00
21545;BME280;10933;50.754;11.508;2023-07-22T01:14:39;99790.44;;;11.77;100.00
21545;BME280;10933;50.754;11.508;2023-07-22T01:17:06;99783.09;;;11.72;100.00
21545;BME280;10933;50.754;11.508;2023-07-22T01:19:34;99781.94;;;11.68;100.00
21545;BME280;10933;50.754;11.508;2023-07-22T01:22:04;99782.47;;;11.65;100.00
21545;BME280;10933;50.754;11.508;2023-07-22T01:24:33;99788.38;;;11.62;100.00
21545;BME280;10933;50.754;11.508;2023-07-22T01:26:59;99792.16;;;11.61;100.00
21545;BME280;10933;50.754;11.508;2023-07-22T01:29:26;99786.75;;;11.61;100.00
21545;BME280;10933;50.754;11.508;2023-07-22T01:31:53;99804.75;;;11.56;100.00
21545;BME280;10933;50.754;11.508;2023-07-22T01:34:21;99803.25;;;11.43;100.00
21545;BME280;10933;50.754;11.508;2023-07-22T01:36:48;99798.28;;;11.35;100.00
21545;BME280;10933;50.754;11.508;2023-07-22T01:39:15;99796.66;;;11.34;100.00
21545;BME280;10933;50.754;11.508;2023-07-22T01:41:42;99795.44;;;11.25;100.00
21545;BME280;10933;50.754;11.508;2023-07-22T01:44:08;99792.09;;;11.17;100.00
21545;BME280;10933;50.754;11.508;2023-07-22T01:46:35;99789.34;;;11.12;100.00
21545;BME280;10933;50.754;11.508;2023-07-22T01:49:09;99790.91;;;11.08;100.00
21545;BME280;10933;50.754;11.508;2023-07-22T01:51:36;99788.22;;;11.08;100.00
21545;BME280;10933;50.754;11.508;2023-07-22T01:54:08;99795.66;;;11.01;100.00
21545;BME280;10933;50.754;11.508;2023-07-22T01:56:36;99792.31;;;10.94;100.00
21545;BME280;10933;50.754;11.508;2023-07-22T01:59:02;99803.84;;;10.89;100.00
21545;BME280;10933;50.754;11.508;2023-07-22T02:01:28;99798.13;;;10.86;100.00
21545;BME280;10933;50.754;11.508;2023-07-22T02:03:55;99802.16;;;10.83;100.00
21545;BME280;10933;50.754;11.508;2023-07-22T02:06:21;99803.78;;;10.84;100.00
21545;BME280;10933;50.754;11.508;2023-07-22T02:08:47;99801.56;;;10.81;100.00
21545;BME280;10933;50.754;11.508;2023-07-22T02:11:13;99816.78;;;10.87;100.00
21545;BME280;10933;50.754;11.508;2023-07-22T02:13:39;99810.97;;;10.79;100.00
21545;BME280;10933;50.754;11.508;2023-07-22T02:16:06;99815.78;;;10.77;100.00
21545;BME280;10933;50.754;11.508;2023-07-22T02:18:32;99815.72;;;10.72;100.00
21545;BME280;10933;50.754;11.508;2023-07-22T02:20:58;99817.28;;;10.68;100.00
21545;BME280;10933;50.754;11.508;2023-07-22T02:23:25;99815.72;;;10.72;100.00
21545;BME280;10933;50.754;11.508;2023-07-22T02:25:52;99808.38;;;10.67;100.00
21545;BME280;10933;50.754;11.508;2023-07-22T02:28:18;99807.53;;;10.67;100.00
21545;BME280;10933;50.754;11.508;2023-07-22T02:30:48;99808.38;;;10.67;100.00
21545;BME280;10933;50.754;11.508;2023-07-22T02:33:14;99809.09;;;10.63;100.00
21545;BME280;10933;50.754;11.508;2023-07-22T02:35:43;99809.84;;;10.58;100.00
21545;BME280;10933;50.754;11.508;2023-07-22T02:38:09;99820.63;;;10.58;100.00
21545;BME280;10933;50.754;11.508;2023-07-22T02:40:36;99817.69;;;10.59;100.00
21545;BME280;10933;50.754;11.508;2023-07-22T02:43:03;99811.03;;;10.50;100.00
21545;BME280;10933;50.754;11.508;2023-07-22T02:45:29;99806.38;;;10.46;100.00
21545;BME280;10933;50.754;11.508;2023-07-22T02:47:55;99811.09;;;10.39;100.00
21545;BME280;10933;50.754;11.508;2023-07-22T02:50:22;99815.03;;;10.31;100.00
21545;BME280;10933;50.754;11.508;2023-07-22T02:52:48;99824.06;;;10.25;100.00
21545;BME280;10933;50.754;11.508;2023-07-22T02:55:15;99817.63;;;10.26;100.00
21545;BME280;10933;50.754;11.508;2023-07-22T02:57:45;99820.31;;;10.26;100.00
21545;BME280;10933;50.754;11.508;2023-07-22T03:00:16;99822.09;;;10.20;100.00
21545;BME280;10933;50.754;11.508;2023-07-22T03:02:50;99828.44;;;10.14;100.00
21545;BME280;10933;50.754;11.508;2023-07-22T03:05:17;99818.19;;;9.99;100.00
21545;BME280;10933;50.754;11.508;2023-07-22T03:07:43;99832.72;;;9.98;100.00
21545;BME280;10933;50.754;11.508;2023-07-22T03:10:09;99820.59;;;9.84;100.00
21545;BME280;10933;50.754;11.508;2023-07-22T03:12:36;99811.72;;;9.72;100.00
21545;BME280;10933;50.754;11.508;2023-07-22T03:15:03;99815.84;;;9.63;100.00
21545;BME280;10933;50.754;11.508;2023-07-22T03:17:30;99817.38;;;9.59;100.00
21545;BME280;10933;50.754;11.508;2023-07-22T03:19:56;99825.09;;;9.67;100.00
21545;BME280;10933;50.754;11.508;2023-07-22T03:22:22;99832.13;;;9.68;100.00
21545;BME280;10933;50.754;11.508;2023-07-22T03:24:48;99832.56;;;9.65;100.00
21545;BME280;10933;50.754;11.508;2023-07-22T03:27:15;99833.28;;;9.60;100.00
21545;BME280;10933;50.754;11.508;2023-07-22T03:29:43;99841.03;;;9.68;100.00
21545;BME280;10933;50.754;11.508;2023-07-22T03:32:09;99833.75;;;9.69;100.00
21545;BME280;10933;50.754;11.508;2023-07-22T03:34:35;99843.72;;;9.68;100.00
21545;BME280;10933;50.754;11.508;2023-07-22T03:37:01;99832.72;;;9.58;100.00
21545;BME280;10933;50.754;11.508;2023-07-22T03:39:27;99832.72;;;9.58;100.00
21545;BME280;10933;50.754;11.508;2023-07-22T03:41:53;99835.66;;;9.57;100.00
21545;BME280;10933;50.754;11.508;2023-07-22T03:44:19;99840.66;;;9.65;100.00
21545;BME280;10933;50.754;11.508;2023-07-22T03:46:45;99849.13;;;9.57;100.00
21545;BME280;10933;50.754;11.508;2023-07-22T03:49:11;99849.47;;;9.49;100.00
21545;BME280;10933;50.754;11.508;2023-07-22T03:51:38;99838.09;;;9.58;100.00
21545;BME280;10933;50.754;11.508;2023-07-22T03:54:04;99840.78;;;9.70;100.00
21545;BME280;10933;50.754;11.508;2023-07-22T03:56:30;99844.50;;;9.81;100.00
21545;BME280;10933;50.754;11.508;2023-07-22T03:58:56;99846.22;;;9.87;100.00
21545;BME280;10933;50.754;11.508;2023-07-22T04:01:22;99851.13;;;9.90;100.00
21545;BME280;10933;50.754;11.508;2023-07-22T04:03:48;99852.44;;;9.87;100.00
21545;BME280;10933;50.754;11.508;2023-07-22T04:06:14;99854.63;;;9.90;100.00
21545;BME280;10933;50.754;11.508;2023-07-22T04:08:40;99850.59;;;9.76;100.00
21545;BME280;10933;50.754;11.508;2023-07-22T04:11:06;99853.84;;;9.78;100.00
21545;BME280;10933;50.754;11.508;2023-07-22T04:13:32;99855.84;;;9.83;100.00
21545;BME280;10933;50.754;11.508;2023-07-22T04:15:58;99861.47;;;9.93;100.00
21545;BME280;10933;50.754;11.508;2023-07-22T04:18:24;99867.47;;;10.12;100.00
21545;BME280;10933;50.754;11.508;2023-07-22T04:20:55;99863.16;;;10.68;100.00
21545;BME280;10933;50.754;11.508;2023-07-22T04:23:23;99879.88;;;11.37;100.00
21545;BME280;10933;50.754;11.508;2023-07-22T04:25:49;99882.81;;;11.91;100.00
21545;BME280;10933;50.754;11.508;2023-07-22T04:28:15;99877.16;;;12.41;100.00
21545;BME280;10933;50.754;11.508;2023-07-22T04:30:41;99899.19;;;13.09;100.00
21545;BME280;10933;50.754;11.508;2023-07-22T04:33:08;99906.53;;;13.50;100.00
21545;BME280;10933;50.754;11.508;2023-07-22T04:35:42;99906.28;;;13.99;100.00
21545;BME280;10933;50.754;11.508;2023-07-22T04:38:08;99911.78;;;14.25;100.00
21545;BME280;10933;50.754;11.508;2023-07-22T04:40:34;99912.88;;;14.29;100.00
21545;BME280;10933;50.754;11.508;2023-07-22T04:43:00;99893.22;;;14.74;100.00
21545;BME280;10933;50.754;11.508;2023-07-22T04:45:27;99888.59;;;15.05;100.00
21545;BME280;10933;50.754;11.508;2023-07-22T04:47:53;99901.06;;;15.37;100.00
21545;BME280;10933;50.754;11.508;2023-07-22T04:50:19;99891.56;;;15.34;100.00
21545;BME280;10933;50.754;11.508;2023-07-22T04:52:47;99902.16;;;15.66;100.00
21545;BME280;10933;50.754;11.508;2023-07-22T04:55:14;99900.97;;;15.87;100.00
21545;BME280;10933;50.754;11.508;2023-07-22T04:57:41;99896.75;;;15.30;100.00
21545;BME280;10933;50.754;11.508;2023-07-22T05:00:12;99899.44;;;15.36;100.00
21545;BME280;10933;50.754;11.508;2023-07-22T05:02:46;99907.06;;;15.44;100.00
21545;BME280;10933;50.754;11.508;2023-07-22T05:05:15;99910.75;;;15.99;100.00
21545;BME280;10933;50.754;11.508;2023-07-22T05:07:42;99927.41;;;16.52;100.00
21545;BME280;10933;50.754;11.508;2023-07-22T05:10:08;99936.50;;;16.81;100.00
21545;BME280;10933;50.754;11.508;2023-07-22T05:12:42;99951.44;;;17.28;100.00
21545;BME280;10933;50.754;11.508;2023-07-22T05:15:10;99966.34;;;17.70;100.00
21545;BME280;10933;50.754;11.508;2023-07-22T05:17:37;99985.09;;;17.76;100.00
21545;BME280;10933;50.754;11.508;2023-07-22T05:20:04;100002.78;;;17.84;100.00
21545;BME280;10933;50.754;11.508;2023-07-22T05:22:32;100019.66;;;17.86;100.00
21545;BME280;10933;50.754;11.508;2023-07-22T05:24:58;100020.56;;;18.77;100.00
21545;BME280;10933;50.754;11.508;2023-07-22T05:27:25;100033.38;;;19.57;100.00
21545;BME280;10933;50.754;11.508;2023-07-22T05:29:51;100049.06;;;19.84;100.00
21545;BME280;10933;50.754;11.508;2023-07-22T05:32:17;100050.50;;;19.44;100.00
21545;BME280;10933;50.754;11.508;2023-07-22T05:34:43;100051.69;;;20.21;100.00
21545;BME280;10933;50.754;11.508;2023-07-22T05:37:09;100065.97;;;20.32;100.00
21545;BME280;10933;50.754;11.508;2023-07-22T05:39:36;100065.16;;;19.53;100.00
21545;BME280;10933;50.754;11.508;2023-07-22T05:42:02;100072.50;;;19.57;100.00
21545;BME280;10933;50.754;11.508;2023-07-22T05:44:28;100067.03;;;20.77;100.00
21545;BME280;10933;50.754;11.508;2023-07-22T05:46:54;100096.69;;;20.75;100.00
21545;BME280;10933;50.754;11.508;2023-07-22T05:49:21;100113.84;;;20.53;100.00
21545;BME280;10933;50.754;11.508;2023-07-22T05:51:47;100120.25;;;20.63;100.00
21545;BME280;10933;50.754;11.508;2023-07-22T05:54:14;100145.09;;;20.52;100.00
21545;BME280;10933;50.754;11.508;2023-07-22T05:56:40;100163.44;;;20.98;100.00
21545;BME280;10933;50.754;11.508;2023-07-22T05:59:07;100192.16;;;20.87;100.00
21545;BME280;10933;50.754;11.508;2023-07-22T06:01:33;100197.69;;;21.28;100.00
21545;BME280;10933;50.754;11.508;2023-07-22T06:03:59;100207.03;;;22.36;100.00
21545;BME280;10933;50.754;11.508;2023-07-22T06:06:25;100214.63;;;21.94;100.00
21545;BME280;10933;50.754;11.508;2023-07-22T06:08:51;100242.28;;;21.61;100.00
21545;BME280;10933;50.754;11.508;2023-07-22T06:11:17;100261.16;;;21.77;100.00
21545;BME280;10933;50.754;11.508;2023-07-22T06:13:44;100293.81;;;21.64;100.00
21545;BME280;10933;50.754;11.508;2023-07-22T06:16:10;100378.63;;;21.52;100.00
21545;BME280;10933;50.754;11.508;2023-07-22T06:18:36;100429.22;;;22.06;100.00
21545;BME280;10933;50.754;11.508;2023-07-22T06:21:02;100495.47;;;22.18;100.00
21545;BME280;10933;50.754;11.508;2023-07-22T06:23:28;100515.53;;;21.72;100.00
21545;BME280;10933;50.754;11.508;2023-07-22T06:25:55;100453.41;;;21.77;100.00
21545;BME280;10933;50.754;11.508;2023-07-22T06:28:21;100247.94;;;23.13;100.00
21545;BME280;10933;50.754;11.508;2023-07-22T06:30:47;99953.63;;;22.16;100.00
21545;BME280;10933;50.754;11.508;2023-07-22T06:33:13;99864.84;;;21.59;100.00
21545;BME280;10933;50.754;11.508;2023-07-22T06:35:40;99850.03;;;21.68;100.00
21545;BME280;10933;50.754;11.508;2023-07-22T06:38:06;99773.03;;;21.03;100.00
21545;BME280;10933;50.754;11.508;2023-07-22T06:40:32;99571.94;;;22.49;100.00
21545;BME280;10933;50.754;11.508;2023-07-22T06:42:58;99075.75;;;23.01;100.00
21545;BME280;10933;50.754;11.508;2023-07-22T06:45:24;98735.22;;;22.78;100.00
21545;BME280;10933;50.754;11.508;2023-07-22T06:47:50;98496.19;;;22.85;100.00
21545;BME280;10933;50.754;11.508;2023-07-22T06:50:16;98432.06;;;22.15;100.00
21545;BME280;10933;50.754;11.508;2023-07-22T06:52:43;98345.03;;;22.19;100.00
21545;BME280;10933;50.754;11.508;2023-07-22T06:55:09;98299.50;;;22.18;100.00
21545;BME280;10933;50.754;11.508;2023-07-22T06:57:35;98308.00;;;21.97;100.00
21545;BME280;10933;50.754;11.508;2023-07-22T07:00:01;98253.50;;;22.88;100.00
21545;BME280;10933;50.754;11.508;2023-07-22T07:02:27;98230.78;;;22.53;100.00
21545;BME280;10933;50.754;11.508;2023-07-22T07:04:53;98217.91;;;22.76;100.00
21545;BME280;10933;50.754;11.508;2023-07-22T07:07:19;98208.63;;;22.84;100.00
21545;BME280;10933;50.754;11.508;2023-07-22T07:09:45;98233.69;;;22.06;100.00
21545;BME280;10933;50.754;11.508;2023-07-22T07:12:12;98225.63;;;22.13;100.00
21545;BME280;10933;50.754;11.508;2023-07-22T07:14:38;98225.22;;;21.79;100.00
21545;BME280;10933;50.754;11.508;2023-07-22T07:17:04;98226.16;;;21.36;100.00
21545;BME280;10933;50.754;11.508;2023-07-22T07:19:30;98226.75;;;21.13;100.00
21545;BME280;10933;50.754;11.508;2023-07-22T07:21:56;98224.13;;;21.33;100.00
21545;BME280;10933;50.754;11.508;2023-07-22T07:24:22;98203.81;;;22.04;100.00
21545;BME280;10933;50.754;11.508;2023-07-22T07:26:48;98226.78;;;21.96;100.00
21545;BME280;10933;50.754;11.508;2023-07-22T07:29:14;98226.03;;;22.50;100.00
21545;BME280;10933;50.754;11.508;2023-07-22T07:31:41;98292.66;;;23.66;100.00
21545;BME280;10933;50.754;11.508;2023-07-22T07:34:07;98323.69;;;23.02;100.00
21545;BME280;10933;50.754;11.508;2023-07-22T07:36:33;98363.91;;;23.10;100.00
21545;BME280;10933;50.754;11.508;2023-07-22T07:39:00;98359.09;;;23.45;100.00
21545;BME280;10933;50.754;11.508;2023-07-22T07:41:27;98392.69;;;23.74;100.00
21545;BME280;10933;50.754;11.508;2023-07-22T07:43:53;98487.09;;;24.17;100.00
21545;BME280;10933;50.754;11.508;2023-07-22T07:46:20;98601.75;;;23.63;100.00
21545;BME280;10933;50.754;11.508;2023-07-22T07:48:49;98643.88;;;25.06;100.00
21545;BME280;10933;50.754;11.508;2023-07-22T07:51:17;98600.19;;;23.31;100.00
21545;BME280;10933;50.754;11.508;2023-07-22T07:53:44;98793.47;;;23.71;100.00
21545;BME280;10933;50.754;11.508;2023-07-22T07:56:13;98811.78;;;25.27;100.00
21545;BME280;10933;50.754;11.508;2023-07-22T07:58:40;98959.50;;;25.56;100.00
21545;BME280;10933;50.754;11.508;2023-07-22T08:01:06;99149.91;;;25.33;100.00
21545;BME280;10933;50.754;11.508;2023-07-22T08:03:34;99151.91;;;25.01;100.00
21545;BME280;10933;50.754;11.508;2023-07-22T08:06:01;99294.16;;;26.09;100.00
21545;BME280;10933;50.754;11.508;2023-07-22T08:08:28;99375.94;;;26.61;100.00
21545;BME280;10933;50.754;11.508;2023-07-22T08:11:05;99391.53;;;26.69;100.00
21545;BME280;10933;50.754;11.508;2023-07-22T08:13:32;99420.75;;;26.35;100.00
21545;BME280;10933;50.754;11.508;2023-07-22T08:16:00;99403.16;;;26.59;100.00
21545;BME280;10933;50.754;11.508;2023-07-22T08:18:26;99425.41;;;26.31;100.00
21545;BME280;10933;50.754;11.508;2023-07-22T08:20:54;99482.00;;;25.90;100.00
21545;BME280;10933;50.754;11.508;2023-07-22T08:23:20;99488.47;;;25.94;100.00
21545;BME280;10933;50.754;11.508;2023-07-22T08:25:47;99487.75;;;26.28;100.00
21545;BME280;10933;50.754;11.508;2023-07-22T08:28:13;99518.06;;;27.62;100.00
21545;BME280;10933;50.754;11.508;2023-07-22T08:30:40;99540.22;;;27.42;100.00
21545;BME280;10933;50.754;11.508;2023-07-22T08:33:10;99560.09;;;27.09;100.00
21545;BME280;10933;50.754;11.508;2023-07-22T08:35:39;99545.94;;;28.53;100.00
21545;BME280;10933;50.754;11.508;2023-07-22T08:38:06;99590.84;;;28.17;100.00
21545;BME280;10933;50.754;11.508;2023-07-22T08:40:37;99603.69;;;26.05;100.00
21545;BME280;10933;50.754;11.508;2023-07-22T08:43:05;99561.22;;;25.98;100.00
21545;BME280;10933;50.754;11.508;2023-07-22T08:45:33;99562.31;;;26.09;100.00
21545;BME280;10933;50.754;11.508;2023-07-22T08:48:12;99593.88;;;26.83;100.00
21545;BME280;10933;50.754;11.508;2023-07-22T08:50:52;99600.53;;;27.49;100.00
21545;BME280;10933;50.754;11.508;2023-07-22T08:53:19;99606.91;;;27.69;100.00
21545;BME280;10933;50.754;11.508;2023-07-22T08:55:46;99608.56;;;25.96;100.00
21545;BME280;10933;50.754;11.508;2023-07-22T08:58:14;99608.06;;;26.06;100.00
21545;BME280;10933;50.754;11.508;2023-07-22T09:00:41;99608.09;;;25.54;100.00
21545;BME280;10933;50.754;11.508;2023-07-22T09:03:08;99590.19;;;25.23;100.00
21545;BME280;10933;50.754;11.508;2023-07-22T09:05:35;99564.44;;;24.95;100.00
21545;BME280;10933;50.754;11.508;2023-07-22T09:08:03;99572.28;;;24.56;100.00
21545;BME280;10933;50.754;11.508;2023-07-22T09:10:30;99568.34;;;24.45;100.00
21545;BME280;10933;50.754;11.508;2023-07-22T09:12:58;99598.34;;;24.14;100.00
21545;BME280;10933;50.754;11.508;2023-07-22T09:15:25;99569.47;;;24.32;100.00
21545;BME280;10933;50.754;11.508;2023-07-22T09:17:51;99596.84;;;23.41;100.00
21545;BME280;10933;50.754;11.508;2023-07-22T09:20:17;99569.44;;;23.45;100.00
21545;BME280;10933;50.754;11.508;2023-07-22T09:22:47;99555.25;;;23.64;100.00
21545;BME280;10933;50.754;11.508;2023-07-22T09:25:18;99554.16;;;23.77;100.00
21545;BME280;10933;50.754;11.508;2023-07-22T09:27:50;99545.56;;;23.16;100.00
21545;BME280;10933;50.754;11.508;2023-07-22T09:30:27;99540.91;;;22.78;100.00
21545;BME280;10933;50.754;11.508;2023-07-22T09:32:58;99548.63;;;22.55;100.00
21545;BME280;10933;50.754;11.508;2023-07-22T09:35:30;99550.91;;;23.33;100.00
21545;BME280;10933;50.754;11.508;2023-07-22T09:37:58;99588.34;;;23.76;100.00
21545;BME280;10933;50.754;11.508;2023-07-22T09:40:26;99606.31;;;25.21;100.00
21545;BME280;10933;50.754;11.508;2023-07-22T09:42:54;99604.44;;;24.40;100.00
21545;BME280;10933;50.754;11.508;2023-07-22T09:45:23;99583.31;;;26.42;100.00
21545;BME280;10933;50.754;11.508;2023-07-22T09:47:51;99584.84;;;27.56;100.00
21545;BME280;10933;50.754;11.508;2023-07-22T09:50:23;99596.41;;;27.23;100.00
21545;BME280;10933;50.754;11.508;2023-07-22T09:52:54;99611.56;;;24.41;100.00
21545;BME280;10933;50.754;11.508;2023-07-22T09:55:25;99604.47;;;23.15;100.00
21545;BME280;10933;50.754;11.508;2023-07-22T09:57:56;99595.84;;;24.66;100.00
21545;BME280;10933;50.754;11.508;2023-07-22T10:00:25;99584.41;;;26.37;100.00
21545;BME280;10933;50.754;11.508;2023-07-22T10:02:55;99599.41;;;24.91;100.00
21545;BME280;10933;50.754;11.508;2023-07-22T10:05:22;99594.63;;;23.35;100.00
21545;BME280;10933;50.754;11.508;2023-07-22T10:07:54;99587.00;;;25.09;100.00
21545;BME280;10933;50.754;11.508;2023-07-22T10:10:41;99598.59;;;26.07;100.00
21545;BME280;10933;50.754;11.508;2023-07-22T10:13:09;99591.09;;;26.67;100.00
21545;BME280;10933;50.754;11.508;2023-07-22T10:15:36;99602.88;;;26.49;100.00
21545;BME280;10933;50.754;11.508;2023-07-22T10:18:03;99607.25;;;26.50;100.00
21545;BME280;10933;50.754;11.508;2023-07-22T10:20:34;99587.44;;;26.95;100.00
21545;BME280;10933;50.754;11.508;2023-07-22T10:23:02;99559.53;;;28.85;100.00
21545;BME280;10933;50.754;11.508;2023-07-22T10:25:30;99592.66;;;27.51;100.00
21545;BME280;10933;50.754;11.508;2023-07-22T10:27:56;99584.59;;;27.81;100.00
21545;BME280;10933;50.754;11.508;2023-07-22T10:30:22;99585.16;;;27.51;100.00
21545;BME280;10933;50.754;11.508;2023-07-22T10:32:51;99592.75;;;27.93;100.00
21545;BME280;10933;50.754;11.508;2023-07-22T10:35:41;99588.81;;;28.13;100.00
21545;BME280;10933;50.754;11.508;2023-07-22T10:38:13;99576.69;;;28.67;100.00
21545;BME280;10933;50.754;11.508;2023-07-22T10:40:50;99591.69;;;27.43;100.00
21545;BME280;10933;50.754;11.508;2023-07-22T10:43:18;99576.53;;;27.37;100.00
21545;BME280;10933;50.754;11.508;2023-07-22T10:45:51;99578.66;;;28.67;100.00
21545;BME280;10933;50.754;11.508;2023-07-22T10:48:18;99604.50;;;26.81;100.00
21545;BME280;10933;50.754;11.508;2023-07-22T10:50:49;99603.06;;;25.44;100.00
21545;BME280;10933;50.754;11.508;2023-07-22T10:58:55;99595.97;;;24.94;100.00
21545;BME280;10933;50.754;11.508;2023-07-22T11:04:22;99599.66;;;23.95;100.00
21545;BME280;10933;50.754;11.508;2023-07-22T11:07:05;99598.47;;;23.42;100.00
21545;BME280;10933;50.754;11.508;2023-07-22T11:09:35;99604.00;;;23.13;100.00
21545;BME280;10933;50.754;11.508;2023-07-22T11:12:05;99597.19;;;22.89;100.00
21545;BME280;10933;50.754;11.508;2023-07-22T11:17:00;99592.91;;;23.01;100.00
21545;BME280;10933;50.754;11.508;2023-07-22T11:19:27;99574.84;;;23.41;100.00
21545;BME280;10933;50.754;11.508;2023-07-22T11:21:54;99570.16;;;22.92;100.00
21545;BME280;10933;50.754;11.508;2023-07-22T11:24:22;99568.34;;;23.67;100.00
21545;BME280;10933;50.754;11.508;2023-07-22T11:26:49;99579.53;;;23.62;100.00
21545;BME280;10933;50.754;11.508;2023-07-22T11:29:16;99574.91;;;23.54;100.00
21545;BME280;10933;50.754;11.508;2023-07-22T11:31:47;99581.28;;;23.45;100.00
21545;BME280;10933;50.754;11.508;2023-07-22T11:34:22;99584.25;;;23.40;100.00
21545;BME280;10933;50.754;11.508;2023-07-22T11:36:49;99584.50;;;23.47;100.00
21545;BME280;10933;50.754;11.508;2023-07-22T11:39:18;99573.56;;;23.60;100.00
21545;BME280;10933;50.754;11.508;2023-07-22T11:41:45;99573.75;;;23.55;100.00
21545;BME280;10933;50.754;11.508;2023-07-22T11:44:16;99582.28;;;22.90;100.00
21545;BME280;10933;50.754;11.508;2023-07-22T11:49:34;99574.72;;;22.87;100.00
21545;BME280;10933;50.754;11.508;2023-07-22T11:52:05;99564.50;;;23.59;100.00
21545;BME280;10933;50.754;11.508;2023-07-22T11:54:34;99552.03;;;24.40;100.00
21545;BME280;10933;50.754;11.508;2023-07-22T11:57:30;99566.31;;;24.67;100.00
21545;BME280;10933;50.754;11.508;2023-07-22T11:59:57;99558.91;;;25.32;100.00
21545;BME280;10933;50.754;11.508;2023-07-22T12:02:27;99554.56;;;24.82;100.00
21545;BME280;10933;50.754;11.508;2023-07-22T12:05:00;99552.66;;;23.80;100.00
21545;BME280;10933;50.754;11.508;2023-07-22T12:07:29;99560.38;;;23.86;100.00
21545;BME280;10933;50.754;11.508;2023-07-22T12:09:58;99555.25;;;23.97;100.00
21545;BME280;10933;50.754;11.508;2023-07-22T12:12:55;99554.81;;;23.74;100.00
21545;BME280;10933;50.754;11.508;2023-07-22T12:15:21;99551.13;;;23.70;100.00
21545;BME280;10933;50.754;11.508;2023-07-22T12:17:53;99545.06;;;24.10;100.00
21545;BME280;10933;50.754;11.508;2023-07-22T12:22:53;99539.28;;;24.72;100.00
21545;BME280;10933;50.754;11.508;2023-07-22T12:25:20;99528.31;;;26.08;100.00
21545;BME280;10933;50.754;11.508;2023-07-22T12:27:46;99522.72;;;26.05;100.00
21545;BME280;10933;50.754;11.508;2023-07-22T12:30:12;99535.63;;;24.56;100.00
21545;BME280;10933;50.754;11.508;2023-07-22T12:32:39;99530.44;;;24.30;100.00
21545;BME280;10933;50.754;11.508;2023-07-22T12:35:05;99534.66;;;23.82;100.00
21545;BME280;10933;50.754;11.508;2023-07-22T12:37:32;99533.72;;;23.57;100.00
21545;BME280;10933;50.754;11.508;2023-07-22T12:39:58;99524.31;;;23.79;100.00
21545;BME280;10933;50.754;11.508;2023-07-22T12:42:24;99516.16;;;24.16;100.00
21545;BME280;10933;50.754;11.508;2023-07-22T12:44:50;99526.84;;;23.84;100.00
21545;BME280;10933;50.754;11.508;2023-07-22T12:47:16;99510.16;;;24.14;100.00
21545;BME280;10933;50.754;11.508;2023-07-22T12:49:43;99503.72;;;24.22;100.00
21545;BME280;10933;50.754;11.508;2023-07-22T12:52:09;99497.75;;;24.20;100.00
21545;BME280;10933;50.754;11.508;2023-07-22T12:54:38;99497.00;;;23.86;100.00
21545;BME280;10933;50.754;11.508;2023-07-22T12:57:05;99501.41;;;23.99;100.00
21545;BME280;10933;50.754;11.508;2023-07-22T12:59:31;99483.56;;;24.42;100.00
21545;BME280;10933;50.754;11.508;2023-07-22T13:01:58;99490.22;;;24.78;100.00